Time;durP1;ratioP1;P1;durP2;ratioP2;P2;SDS_P1;SDS_P2;PMS_P1;PMS_P2;Temp;Humidity;BMP_temperature;BMP_pressure;BME280_temperature;BME280_humidity;BME280_pressure;Samples;Min_cycle;Max_cycle;Signal;HPM_P1;HPM_P2
2024/02/29 00:02:12;;;;;;;;;21.75;18.25;;;;;-143.90;100.00;75962.03;4948449;28;102386;-74
2024/02/29 00:04:39;;;;;;;;;21.00;18.50;;;;;-143.90;100.00;75953.78;4942650;28;101785;-74
2024/02/29 00:07:06;;;;;;;;;15.00;13.25;;;;;-143.90;100.00;75949.63;4935984;28;104427;-74
2024/02/29 00:09:33;;;;;;;;;20.00;15.75;;;;;-143.90;100.00;75945.50;4948029;28;101565;-74
2024/02/29 00:11:59;;;;;;;;;13.00;10.25;;;;;-143.90;100.00;75945.50;4921868;28;101898;-73
2024/02/29 00:14:26;;;;;;;;;19.50;14.00;;;;;-143.90;100.00;75949.63;4945891;28;101890;-74
2024/02/29 00:16:53;;;;;;;;;13.50;10.50;;;;;-143.90;100.00;75941.38;4930066;28;108321;-74
2024/02/29 00:19:20;;;;;;;;;6.75;6.25;;;;;-143.90;100.00;75937.22;4929104;28;101901;-74
2024/02/29 00:21:47;;;;;;;;;9.25;7.75;;;;;-143.90;100.00;75933.09;4931148;28;104441;-74
2024/02/29 00:24:14;;;;;;;;;9.00;8.25;;;;;-143.90;100.00;75937.22;4940171;28;102078;-74
2024/02/29 00:26:41;;;;;;;;;7.75;7.25;;;;;-143.90;100.00;75926.88;4926767;28;103451;-75
2024/02/29 00:29:08;;;;;;;;;16.75;14.50;;;;;-143.90;100.00;75928.97;4942597;28;101718;-74
2024/02/29 00:31:35;;;;;;;;;6.25;4.50;;;;;-143.90;100.00;75924.81;4946684;28;101589;-74
2024/02/29 00:34:02;;;;;;;;;6.50;6.00;;;;;-143.90;100.00;75939.28;4945338;28;102842;-74
2024/02/29 00:36:28;;;;;;;;;13.00;11.25;;;;;-143.90;100.00;75941.38;4946011;28;103672;-74
2024/02/29 00:38:55;;;;;;;;;24.50;22.50;;;;;-143.90;100.00;75964.13;4947055;28;101974;-74
2024/02/29 00:41:37;;;;;;;;;23.25;20.75;;;;;-143.90;100.00;75966.19;4941726;28;102159;-74
2024/02/29 00:44:04;;;;;;;;;19.25;16.50;;;;;-143.90;100.00;75962.03;4951532;28;101612;-74
2024/02/29 00:46:30;;;;;;;;;23.00;20.50;;;;;-143.90;100.00;75970.31;4942848;28;103318;-74
2024/02/29 00:48:57;;;;;;;;;21.75;16.75;;;;;-143.90;100.00;75968.25;4947327;28;101856;-73
2024/02/29 00:51:24;;;;;;;;;31.50;24.25;;;;;-143.90;100.00;75974.44;4962002;28;101889;-74
2024/02/29 00:53:51;;;;;;;;;28.25;23.00;;;;;-143.90;100.00;75974.44;4962617;28;101656;-74
2024/02/29 00:56:17;;;;;;;;;20.75;14.50;;;;;-143.90;100.00;75964.13;4958718;28;104783;-74
2024/02/29 00:58:44;;;;;;;;;12.50;11.50;;;;;-143.90;100.00;75964.13;4951564;28;102089;-74
2024/02/29 01:01:11;;;;;;;;;24.25;17.00;;;;;-143.90;100.00;75978.59;4959188;28;101756;-74
2024/02/29 01:03:38;;;;;;;;;16.00;14.75;;;;;-143.90;100.00;75974.44;4964650;28;103310;-74
2024/02/29 01:06:05;;;;;;;;;15.50;13.75;;;;;-143.90;100.00;75964.13;4960283;28;103117;-73
2024/02/29 01:08:31;;;;;;;;;17.50;13.25;;;;;-143.90;100.00;75972.38;4950585;28;102626;-73
2024/02/29 01:10:58;;;;;;;;;15.00;13.00;;;;;-143.90;100.00;75962.03;4961849;28;101786;-74
2024/02/29 01:13:25;;;;;;;;;19.75;17.00;;;;;-143.90;100.00;75959.97;4968081;28;101478;-74
2024/02/29 01:15:52;;;;;;;;;15.25;14.50;;;;;-143.90;100.00;75953.78;4965948;28;103311;-74
2024/02/29 01:18:18;;;;;;;;;13.50;9.75;;;;;-143.90;100.00;75953.78;4959122;28;101932;-75
2024/02/29 01:20:45;;;;;;;;;10.00;8.00;;;;;-143.90;100.00;75949.63;4950075;28;101893;-74
2024/02/29 01:23:12;;;;;;;;;9.00;7.00;;;;;-143.90;100.00;75939.28;4960912;28;104469;-74
2024/02/29 01:25:39;;;;;;;;;9.75;8.00;;;;;-143.90;100.00;75949.63;4950851;28;103459;-75
2024/02/29 01:28:05;;;;;;;;;16.50;15.00;;;;;-143.90;100.00;75949.63;4950605;28;102918;-74
2024/02/29 01:30:32;;;;;;;;;11.50;9.00;;;;;-143.90;100.00;75947.56;4951526;28;101772;-74
2024/02/29 01:32:59;;;;;;;;;11.25;9.00;;;;;-143.90;100.00;75953.78;4960731;28;101704;-74
2024/02/29 01:35:26;;;;;;;;;16.75;14.25;;;;;-143.90;100.00;75943.44;4960768;28;103354;-74
2024/02/29 01:37:53;;;;;;;;;13.25;9.00;;;;;-143.90;100.00;75947.56;4958051;28;101586;-76
2024/02/29 01:40:20;;;;;;;;;13.75;12.50;;;;;-143.90;100.00;75964.13;4955881;28;101795;-74
2024/02/29 01:42:46;;;;;;;;;18.75;13.75;;;;;-143.90;100.00;75964.13;4946940;28;102222;-74
2024/02/29 01:45:13;;;;;;;;;24.75;17.50;;;;;-143.90;100.00;75984.78;4958337;28;103517;-74
2024/02/29 01:47:40;;;;;;;;;23.50;18.75;;;;;-143.90;100.00;75984.78;4955865;28;102160;-74
2024/02/29 01:50:09;;;;;;;;;23.00;19.50;;;;;-143.90;100.00;75984.78;4948999;28;101654;-74
2024/02/29 01:52:42;;;;;;;;;25.50;22.75;;;;;-143.90;100.00;75991.00;4952077;28;101597;-75
2024/02/29 01:55:10;;;;;;;;;24.50;20.00;;;;;-143.90;100.00;75993.06;4950623;28;103074;-74
2024/02/29 01:57:38;;;;;;;;;24.75;21.50;;;;;-143.90;100.00;75991.00;4951547;28;101902;-74
2024/02/29 02:00:05;;;;;;;;;16.00;13.00;;;;;-143.90;100.00;75982.72;4951307;28;101956;-74
2024/02/29 02:02:33;;;;;;;;;25.50;20.25;;;;;-143.90;100.00;75984.78;4946292;28;104748;-74
2024/02/29 02:05:00;;;;;;;;;18.75;15.25;;;;;-143.90;100.00;75978.59;4957047;28;103469;-74
2024/02/29 02:07:27;;;;;;;;;21.00;18.75;;;;;-143.90;100.00;75978.59;4960197;28;101690;-74
2024/02/29 02:09:55;;;;;;;;;14.25;9.75;;;;;-143.90;100.00;75974.44;4960618;28;102054;-74
2024/02/29 02:12:22;;;;;;;;;22.00;13.75;;;;;-143.90;100.00;75984.78;4965889;28;101687;-74
2024/02/29 02:14:48;;;;;;;;;23.50;18.75;;;;;-143.90;100.00;75984.78;4943333;28;103811;-74
2024/02/29 02:17:15;;;;;;;;;20.25;16.75;;;;;-143.90;100.00;75978.59;4957528;28;101769;-74
2024/02/29 02:19:42;;;;;;;;;20.00;16.00;;;;;-143.90;100.00;75974.44;4957657;28;101997;-74
2024/02/29 02:22:09;;;;;;;;;18.75;13.25;;;;;-143.90;100.00;75968.25;4958868;28;102126;-74
2024/02/29 02:24:36;;;;;;;;;14.50;13.50;;;;;-143.90;100.00;75966.19;4945655;28;103367;-73
2024/02/29 02:27:03;;;;;;;;;10.00;9.00;;;;;-143.90;100.00;75970.31;4954193;28;105859;-74
2024/02/29 02:29:30;;;;;;;;;13.75;12.00;;;;;-143.90;100.00;75964.13;4955595;28;102226;-73
2024/02/29 02:31:56;;;;;;;;;13.50;10.75;;;;;-143.90;100.00;75962.03;4958771;28;102032;-74
2024/02/29 02:34:23;;;;;;;;;10.00;8.25;;;;;-143.90;100.00;75962.03;4952978;28;103585;-74
2024/02/29 02:36:50;;;;;;;;;13.50;10.25;;;;;-143.90;100.00;75962.03;4946320;28;102036;-74
2024/02/29 02:39:17;;;;;;;;;13.25;11.00;;;;;-143.90;100.00;75957.91;4958991;28;101539;-74
2024/02/29 02:41:48;;;;;;;;;14.25;9.50;;;;;-143.90;100.00;75957.91;4955546;28;102596;-74
2024/02/29 02:44:14;;;;;;;;;15.75;14.00;;;;;-143.90;100.00;75966.19;4955296;28;103522;-74
2024/02/29 02:46:41;;;;;;;;;13.75;12.75;;;;;-143.90;100.00;75970.31;4950137;28;102188;-74
2024/02/29 02:49:08;;;;;;;;;24.75;15.00;;;;;-143.90;100.00;75976.53;4954833;28;104404;-74
2024/02/29 02:51:35;;;;;;;;;14.75;10.25;;;;;-143.90;100.00;75970.31;4951620;28;102936;-75
2024/02/29 02:54:01;;;;;;;;;19.50;16.75;;;;;-143.90;100.00;75974.44;4958698;28;103411;-74
2024/02/29 02:56:28;;;;;;;;;22.75;20.75;;;;;-143.90;100.00;75980.66;4949790;28;101531;-74
2024/02/29 02:58:55;;;;;;;;;25.25;18.25;;;;;-143.90;100.00;75974.44;4955429;28;103086;-74
2024/02/29 03:01:22;;;;;;;;;27.00;19.25;;;;;-143.90;100.00;75970.31;4954589;28;101938;-74
2024/02/29 03:03:51;;;;;;;;;38.00;32.50;;;;;-143.90;100.00;75970.31;4953176;28;103618;-74
2024/02/29 03:06:18;;;;;;;;;21.25;20.00;;;;;-143.90;100.00;75972.38;4948816;28;101991;-74
2024/02/29 03:08:45;;;;;;;;;28.25;25.50;;;;;-143.90;100.00;75970.31;4950739;28;103314;-74
2024/02/29 03:11:11;;;;;;;;;23.75;20.25;;;;;-143.90;100.00;75970.31;4955829;28;102736;-74
2024/02/29 03:13:38;;;;;;;;;23.00;17.50;;;;;-143.90;100.00;75972.38;4949237;28;103333;-74
2024/02/29 03:16:05;;;;;;;;;40.25;31.00;;;;;-143.90;100.00;75988.94;4955509;28;102069;-74
2024/02/29 03:18:32;;;;;;;;;30.75;24.75;;;;;-143.90;100.00;75986.84;4951142;28;101679;-73
2024/02/29 03:20:58;;;;;;;;;24.25;22.00;;;;;-143.90;100.00;75999.25;4943826;28;102191;-75
2024/02/29 03:23:25;;;;;;;;;34.75;28.75;;;;;-143.90;100.00;75995.13;4954172;28;107807;-75
2024/02/29 03:25:52;;;;;;;;;31.75;26.50;;;;;-143.90;100.00;76001.34;4960095;28;101859;-75
2024/02/29 03:28:18;;;;;;;;;31.00;25.00;;;;;-143.90;100.00;76003.41;4955655;28;101759;-75
2024/02/29 03:30:45;;;;;;;;;26.25;21.75;;;;;-143.90;100.00;75999.25;4953010;28;102220;-76
2024/02/29 03:33:12;;;;;;;;;24.25;19.50;;;;;-143.90;100.00;75995.13;4955357;28;103437;-74
2024/02/29 03:35:38;;;;;;;;;21.25;19.50;;;;;-143.90;100.00;75995.13;4954601;28;101843;-75
2024/02/29 03:38:05;;;;;;;;;22.50;20.25;;;;;-143.90;100.00;75999.25;4957334;28;102769;-75
2024/02/29 03:40:32;;;;;;;;;24.00;20.25;;;;;-143.90;100.00;75999.25;4954880;28;106692;-74
2024/02/29 03:42:59;;;;;;;;;20.50;19.00;;;;;-143.90;100.00;76001.34;4960304;28;105855;-74
2024/02/29 03:45:26;;;;;;;;;30.50;26.25;;;;;-143.90;100.00;76011.66;4960041;28;101508;-75
2024/02/29 03:47:54;;;;;;;;;34.75;29.00;;;;;-143.90;100.00;76001.34;4962812;28;101521;-75
2024/02/29 03:50:21;;;;;;;;;27.00;23.75;;;;;-143.90;100.00;76001.34;4948542;28;101931;-75
2024/02/29 03:52:47;;;;;;;;;23.50;19.00;;;;;-143.90;100.00;76001.34;4939328;28;103589;-75
2024/02/29 03:55:14;;;;;;;;;20.75;18.00;;;;;-143.90;100.00;75991.00;4942132;28;103044;-75
2024/02/29 03:57:41;;;;;;;;;29.50;23.50;;;;;-143.90;100.00;75999.25;4949148;28;102494;-74
2024/02/29 04:00:10;;;;;;;;;29.50;26.25;;;;;-143.90;100.00;76003.41;4952090;28;102129;-75
2024/02/29 04:02:39;;;;;;;;;32.25;26.50;;;;;-143.90;100.00;75995.13;4941161;28;104642;-75
2024/02/29 04:05:08;;;;;;;;;33.00;24.00;;;;;-143.90;100.00;76007.53;4945041;28;101715;-75
2024/02/29 04:07:41;;;;;;;;;36.50;31.00;;;;;-143.90;100.00;76009.59;4948045;28;102160;-74
2024/02/29 04:10:08;;;;;;;;;26.50;25.00;;;;;-143.90;100.00;76019.94;4939324;28;102036;-75
2024/02/29 04:12:35;;;;;;;;;38.25;27.25;;;;;-143.90;100.00;76013.75;4940559;28;103557;-74
2024/02/29 04:15:02;;;;;;;;;34.75;28.25;;;;;-143.90;100.00;76013.75;4944185;28;102247;-75
2024/02/29 04:17:32;;;;;;;;;34.50;20.75;;;;;-143.90;100.00;76013.75;4950735;28;101589;-74
2024/02/29 04:19:59;;;;;;;;;38.50;27.00;;;;;-143.90;100.00;76011.66;4955808;28;105826;-75
2024/02/29 04:22:29;;;;;;;;;29.50;25.00;;;;;-143.90;100.00;76007.53;4949058;28;107576;-75
2024/02/29 04:24:56;;;;;;;;;34.75;29.00;;;;;-143.90;100.00;76013.75;4940021;28;101962;-75
2024/02/29 04:27:22;;;;;;;;;28.00;25.75;;;;;-143.90;100.00;76007.53;4938201;28;102755;-74
2024/02/29 04:29:49;;;;;;;;;27.00;23.25;;;;;-143.90;100.00;76011.66;4946704;28;104023;-75
2024/02/29 04:32:16;;;;;;;;;20.50;19.25;;;;;-143.90;100.00;76005.47;4948112;28;103505;-75
2024/02/29 04:34:42;;;;;;;;;31.25;25.00;;;;;-143.90;100.00;76007.53;4940107;28;104184;-74
2024/02/29 04:37:09;;;;;;;;;29.75;24.50;;;;;-143.90;100.00;76003.41;4948781;28;102889;-75
2024/02/29 04:39:36;;;;;;;;;35.00;27.25;;;;;-143.90;100.00;76005.47;4945638;28;101648;-75
2024/02/29 04:42:03;;;;;;;;;31.50;28.75;;;;;-143.90;100.00;76003.41;4942130;28;103505;-75
2024/02/29 04:44:30;;;;;;;;;23.50;19.75;;;;;-143.90;100.00;75993.06;4941688;28;101879;-75
2024/02/29 04:46:57;;;;;;;;;28.50;22.25;;;;;-143.90;100.00;75999.25;4946735;28;103897;-75
2024/02/29 04:49:23;;;;;;;;;23.50;20.00;;;;;-143.90;100.00;75995.13;4955715;28;101812;-75
2024/02/29 04:51:50;;;;;;;;;27.25;23.75;;;;;-143.90;100.00;75995.13;4946827;28;103558;-74
2024/02/29 04:54:17;;;;;;;;;34.50;24.75;;;;;-143.90;100.00;75988.94;4949483;28;101968;-74
2024/02/29 04:56:44;;;;;;;;;40.50;31.00;;;;;-143.90;100.00;75982.72;4936403;28;101892;-75
2024/02/29 04:59:10;;;;;;;;;40.25;32.00;;;;;-143.90;100.00;75999.25;4948419;28;102074;-74
2024/02/29 05:01:37;;;;;;;;;23.25;20.75;;;;;-143.90;100.00;75995.13;4952436;28;103527;-76
2024/02/29 05:04:04;;;;;;;;;32.75;24.50;;;;;-143.90;100.00;75999.25;4954441;28;101605;-74
2024/02/29 05:06:31;;;;;;;;;27.25;22.00;;;;;-143.90;100.00;75988.94;4946039;28;101682;-74
2024/02/29 05:08:58;;;;;;;;;36.25;31.25;;;;;-143.90;100.00;75999.25;4941258;28;101664;-74
2024/02/29 05:11:26;;;;;;;;;33.50;27.75;;;;;-143.90;100.00;75995.13;4951820;28;107823;-76
2024/02/29 05:13:52;;;;;;;;;29.50;27.75;;;;;-143.90;100.00;76007.53;4954274;28;102062;-77
2024/02/29 05:16:20;;;;;;;;;20.50;14.75;;;;;-143.90;100.00;76001.34;4951333;28;101696;-75
2024/02/29 05:18:47;;;;;;;;;25.50;23.50;;;;;-143.90;100.00;76001.34;4945833;28;101933;-75
2024/02/29 05:21:13;;;;;;;;;25.25;20.00;;;;;-143.90;100.00;76003.41;4956866;28;103583;-75
2024/02/29 05:23:40;;;;;;;;;24.00;18.75;;;;;-143.90;100.00;75993.06;4957582;28;101962;-75
2024/02/29 05:26:07;;;;;;;;;16.25;14.25;;;;;-143.90;100.00;75991.00;4959389;28;104475;-76
2024/02/29 05:28:34;;;;;;;;;19.00;14.25;;;;;-143.90;100.00;75991.00;4949142;28;101632;-76
2024/02/29 05:31:01;;;;;;;;;17.75;15.50;;;;;-143.90;100.00;75995.13;4959202;28;103531;-75
2024/02/29 05:33:28;;;;;;;;;18.75;16.25;;;;;-143.90;100.00;75995.13;4961965;28;101537;-76
2024/02/29 05:35:55;;;;;;;;;19.50;17.50;;;;;-143.90;100.00;75995.13;4953123;28;102271;-77
2024/02/29 05:38:22;;;;;;;;;22.75;18.00;;;;;-143.90;100.00;75995.13;4959782;28;101765;-77
2024/02/29 05:40:48;;;;;;;;;21.00;18.00;;;;;-143.90;100.00;76001.34;4945252;28;103587;-77
2024/02/29 05:43:15;;;;;;;;;22.75;19.75;;;;;-143.90;100.00;75995.13;4951334;28;101885;-77
2024/02/29 05:45:42;;;;;;;;;24.25;21.75;;;;;-143.90;100.00;76005.47;4953534;28;101893;-77
2024/02/29 05:48:09;;;;;;;;;20.50;15.75;;;;;-143.90;100.00;76001.34;4952743;28;101706;-77
2024/02/29 05:50:36;;;;;;;;;18.50;16.25;;;;;-143.90;100.00;75995.13;4951355;28;103545;-76
2024/02/29 05:53:03;;;;;;;;;19.50;14.25;;;;;-143.90;100.00;75991.00;4950719;28;105583;-77
2024/02/29 05:55:30;;;;;;;;;20.00;13.50;;;;;-143.90;100.00;75991.00;4940291;28;101676;-77
2024/02/29 05:57:56;;;;;;;;;25.00;19.00;;;;;-143.90;100.00;75991.00;4959256;28;101652;-77
2024/02/29 06:00:23;;;;;;;;;42.25;34.75;;;;;-143.90;100.00;76001.34;4954976;28;104146;-77
2024/02/29 06:02:50;;;;;;;;;25.25;21.00;;;;;-143.90;100.00;76001.34;4947345;28;102054;-77
2024/02/29 06:05:19;;;;;;;;;32.25;26.25;;;;;-143.90;100.00;75993.06;4941828;28;101606;-77
2024/02/29 06:07:46;;;;;;;;;27.25;22.75;;;;;-143.90;100.00;75995.13;4949573;28;101723;-77
2024/02/29 06:10:13;;;;;;;;;19.50;16.75;;;;;-143.90;100.00;75993.06;4942801;28;104588;-77
2024/02/29 06:12:40;;;;;;;;;26.75;23.50;;;;;-143.90;100.00;75991.00;4944288;28;102083;-74
2024/02/29 06:15:08;;;;;;;;;20.25;17.25;;;;;-143.90;100.00;75982.72;4949155;28;104766;-74
2024/02/29 06:17:38;;;;;;;;;31.25;30.00;;;;;-143.90;100.00;75986.84;4950386;28;101637;-74
2024/02/29 06:20:10;;;;;;;;;26.25;19.75;;;;;-143.90;100.00;75988.94;4953851;28;103797;-75
2024/02/29 06:22:39;;;;;;;;;28.50;24.50;;;;;-143.90;100.00;75991.00;4953526;28;102241;-75
2024/02/29 06:25:08;;;;;;;;;25.75;19.75;;;;;-143.90;100.00;75993.06;4959611;28;101993;-74
2024/02/29 06:27:39;;;;;;;;;31.50;24.75;;;;;-143.90;100.00;75991.00;4963230;28;102011;-75
2024/02/29 06:30:08;;;;;;;;;28.00;24.25;;;;;-143.90;100.00;75986.84;4950241;28;103384;-74
2024/02/29 06:32:35;;;;;;;;;24.25;21.25;;;;;-143.90;100.00;75982.72;4944863;28;101884;-73
2024/02/29 06:35:03;;;;;;;;;23.50;19.75;;;;;-143.90;100.00;75974.44;4936460;28;102171;-75
2024/02/29 06:37:29;;;;;;;;;19.50;18.00;;;;;-143.90;100.00;75986.84;4938793;28;101761;-75
2024/02/29 06:39:58;;;;;;;;;22.75;18.25;;;;;-143.90;100.00;75991.00;4957624;28;108260;-75
2024/02/29 06:42:25;;;;;;;;;26.75;19.50;;;;;-143.90;100.00;75986.84;4950596;28;102018;-75
2024/02/29 06:44:53;;;;;;;;;24.75;23.00;;;;;-143.90;100.00;75984.78;4939146;28;101718;-74
2024/02/29 06:47:19;;;;;;;;;36.75;27.50;;;;;-143.90;100.00;75980.66;4957847;28;102070;-75
2024/02/29 06:49:46;;;;;;;;;35.25;26.25;;;;;-143.90;100.00;75974.44;4945544;28;103379;-74
2024/02/29 06:52:13;;;;;;;;;41.25;31.75;;;;;-143.90;100.00;75966.19;4939262;28;101771;-74
2024/02/29 06:54:42;;;;;;;;;32.25;25.25;;;;;-143.90;100.00;75959.97;4931722;28;101634;-74
2024/02/29 06:57:09;;;;;;;;;28.25;26.25;;;;;-143.90;100.00;75957.91;4930425;28;101674;-76
2024/02/29 06:59:36;;;;;;;;;31.25;25.50;;;;;-143.90;100.00;75955.84;4948658;28;103560;-74
2024/02/29 07:02:02;;;;;;;;;30.25;23.50;;;;;-143.90;100.00;75949.63;4963358;28;101788;-75
2024/02/29 07:04:29;;;;;;;;;36.00;31.25;;;;;-143.90;100.00;75955.84;4967092;28;102046;-75
2024/02/29 07:06:56;;;;;;;;;35.25;28.50;;;;;-143.90;100.00;75939.28;4970274;28;102046;-75
2024/02/29 07:09:23;;;;;;;;;41.00;32.75;;;;;-143.90;100.00;75928.97;4970792;28;103558;-77
2024/02/29 07:11:49;;;;;;;;;34.50;25.25;;;;;-143.90;100.00;75916.56;4968338;28;101496;-74
2024/02/29 07:14:16;;;;;;;;;22.50;21.75;;;;;-143.90;100.00;75916.56;4968786;28;103266;-75
2024/02/29 07:16:43;;;;;;;;;40.25;29.25;;;;;-143.90;100.00;75916.56;4958204;28;101489;-74
2024/02/29 07:19:09;;;;;;;;;27.00;22.00;;;;;-143.90;100.00;75908.28;4968707;28;103544;-74
2024/02/29 07:21:36;;;;;;;;;29.50;25.50;;;;;-143.90;100.00;75902.06;4967708;28;101552;-74
2024/02/29 07:24:03;;;;;;;;;20.75;19.00;;;;;-143.90;100.00;75879.34;4972439;28;101800;-74
2024/02/29 07:26:30;;;;;;;;;25.75;20.00;;;;;-143.90;100.00;75871.06;4967604;28;101863;-74
2024/02/29 07:28:58;;;;;;;;;25.50;21.25;;;;;-143.90;100.00;75875.19;4968341;28;108347;-74
2024/02/29 07:31:25;;;;;;;;;32.00;26.75;;;;;-143.90;100.00;75875.19;4977563;28;102046;-75
2024/02/29 07:33:53;;;;;;;;;30.75;26.25;;;;;-143.90;100.00;75893.81;4967562;28;101829;-74
2024/02/29 07:36:20;;;;;;;;;37.00;31.00;;;;;-143.90;100.00;75887.59;4975923;28;101702;-75
2024/02/29 07:38:47;;;;;;;;;37.75;29.25;;;;;-143.90;100.00;75866.94;4966527;28;103428;-75
2024/02/29 07:41:14;;;;;;;;;34.25;30.50;;;;;-143.90;100.00;75869.00;4970416;28;101546;-75
2024/02/29 07:43:41;;;;;;;;;31.00;28.25;;;;;-143.90;100.00;75858.66;4971854;28;101620;-75
2024/02/29 07:46:08;;;;;;;;;30.75;25.50;;;;;-143.90;100.00;75862.78;4970343;28;104080;-74
2024/02/29 07:48:35;;;;;;;;;30.00;25.00;;;;;-143.90;100.00;75842.13;4954176;28;103553;-74
2024/02/29 07:51:01;;;;;;;;;38.75;31.75;;;;;-143.90;100.00;75850.38;4972094;28;102366;-74
2024/02/29 07:53:29;;;;;;;;;40.25;34.00;;;;;-143.90;100.00;75842.13;4961947;28;101691;-75
2024/02/29 07:55:56;;;;;;;;;30.00;26.50;;;;;-143.90;100.00;75831.78;4960306;28;101615;-74
2024/02/29 07:58:22;;;;;;;;;37.00;30.25;;;;;-143.90;100.00;75827.63;4971338;28;103424;-75
2024/02/29 08:00:49;;;;;;;;;44.00;35.00;;;;;-143.90;100.00;75827.63;4950653;28;101578;-75
2024/02/29 08:03:16;;;;;;;;;49.00;37.25;;;;;-143.90;100.00;75809.03;4946109;28;105243;-75
2024/02/29 08:05:43;;;;;;;;;33.25;27.75;;;;;-143.90;100.00;75788.34;4953053;28;101848;-75
2024/02/29 08:08:11;;;;;;;;;41.75;36.00;;;;;-143.90;100.00;75784.22;4953611;28;103551;-75
2024/02/29 08:10:39;;;;;;;;;47.25;38.25;;;;;-143.90;100.00;75815.22;4956732;28;102507;-74
2024/02/29 08:13:05;;;;;;;;;45.00;38.50;;;;;-143.90;100.00;75804.91;4952751;28;101580;-74
2024/02/29 08:15:33;;;;;;;;;45.50;36.25;;;;;-143.90;100.00;75798.69;4957949;28;103257;-75
2024/02/29 08:18:00;;;;;;;;;53.00;40.25;;;;;-143.90;100.00;75786.28;4941924;28;107960;-75
2024/02/29 08:20:27;;;;;;;;;41.00;32.00;;;;;-143.90;100.00;75767.69;4962102;28;101750;-75
2024/02/29 08:22:57;;;;;;;;;46.00;38.00;;;;;-143.90;100.00;75761.47;4948495;28;101553;-75
2024/02/29 08:25:26;;;;;;;;;44.25;38.75;;;;;-143.90;100.00;75761.47;4950479;28;101892;-75
2024/02/29 08:27:53;;;;;;;;;46.25;36.00;;;;;-143.90;100.00;75759.41;4957063;28;103453;-75
2024/02/29 08:30:20;;;;;;;;;47.00;35.00;;;;;-143.90;100.00;75751.13;4963237;28;101744;-75
2024/02/29 08:32:48;;;;;;;;;48.25;38.25;;;;;-143.90;100.00;75751.13;4944128;28;102115;-75
2024/02/29 08:35:18;;;;;;;;;46.75;36.00;;;;;-143.90;100.00;75742.88;4950687;28;105920;-75
2024/02/29 08:37:45;;;;;;;;;55.00;39.00;;;;;-143.90;100.00;75749.06;4936633;28;103540;-75
2024/02/29 08:40:12;;;;;;;;;42.00;34.00;;;;;-143.90;100.00;75711.84;4961924;28;102181;-76
2024/02/29 08:42:39;;;;;;;;;48.00;38.00;;;;;-143.90;100.00;75689.09;4948796;28;101523;-74
2024/02/29 08:45:07;;;;;;;;;49.25;38.75;;;;;-143.90;100.00;75662.22;4965173;28;101810;-74
2024/02/29 08:47:33;;;;;;;;;53.25;39.50;;;;;-143.90;100.00;75649.81;4958419;28;103485;-74
2024/02/29 08:50:01;;;;;;;;;55.25;37.25;;;;;-143.90;100.00;75643.63;4953616;28;101736;-75
2024/02/29 08:52:30;;;;;;;;;49.00;39.00;;;;;-143.90;100.00;75625.00;4957951;28;104433;-75
2024/02/29 08:54:57;;;;;;;;;32.50;27.50;;;;;-143.90;100.00;75577.44;4954534;28;101806;-75
2024/02/29 08:57:24;;;;;;;;;45.75;31.50;;;;;-143.90;100.00;75565.03;4967625;28;103537;-75
2024/02/29 08:59:51;;;;;;;;;43.50;36.25;;;;;-143.90;100.00;75554.72;4964414;28;101837;-75
2024/02/29 09:02:18;;;;;;;;;39.75;36.25;;;;;-143.90;100.00;75546.44;4953080;28;101838;-76
2024/02/29 09:04:44;;;;;;;;;49.75;37.00;;;;;-143.90;100.00;75560.91;4947220;28;101606;-77
2024/02/29 09:07:11;;;;;;;;;36.00;30.00;;;;;-143.90;100.00;75540.22;4957936;28;103435;-77
2024/02/29 09:09:41;;;;;;;;;49.25;38.50;;;;;-143.90;100.00;75581.59;4939069;28;102912;-77
2024/02/29 09:12:09;;;;;;;;;48.00;38.50;;;;;-143.90;100.00;75585.72;4954602;28;101633;-77
2024/02/29 09:14:37;;;;;;;;;51.50;39.00;;;;;-143.90;100.00;75589.84;4954037;28;101998;-77
2024/02/29 09:17:04;;;;;;;;;45.25;38.00;;;;;-143.90;100.00;75606.41;4959944;28;103492;-74
2024/02/29 09:19:31;;;;;;;;;57.25;42.25;;;;;-143.90;100.00;75596.06;4955996;28;101749;-75
2024/02/29 09:21:57;;;;;;;;;52.25;39.50;;;;;-143.90;100.00;75587.78;4946582;28;101913;-75
2024/02/29 09:24:24;;;;;;;;;47.50;37.00;;;;;-143.90;100.00;75569.19;4965202;28;101790;-75
2024/02/29 09:26:51;;;;;;;;;36.50;34.25;;;;;-143.90;100.00;75560.91;4948711;28;103695;-75
2024/02/29 09:29:17;;;;;;;;;49.75;39.50;;;;;-143.90;100.00;75562.97;4959628;28;101691;-75
2024/02/29 09:31:44;;;;;;;;;48.25;35.75;;;;;-143.90;100.00;75538.16;4947303;28;102193;-75
2024/02/29 09:34:11;;;;;;;;;36.00;31.75;;;;;-143.90;100.00;75523.69;4949001;28;101935;-75
2024/02/29 09:36:38;;;;;;;;;56.50;41.25;;;;;-143.90;100.00;75540.22;4953572;28;103416;-75
2024/02/29 09:39:05;;;;;;;;;54.25;40.00;;;;;-143.90;100.00;75536.09;4950750;28;105662;-75
2024/02/29 09:41:32;;;;;;;;;36.75;35.00;;;;;-143.90;100.00;75531.97;4952684;28;102664;-75
2024/02/29 09:44:19;;;;;;;;;45.00;37.75;;;;;-143.90;100.00;75531.97;4957232;28;101655;-76
2024/02/29 09:46:50;;;;;;;;;50.50;39.75;;;;;-143.90;100.00;75515.41;4931959;28;103619;-75
2024/02/29 09:49:17;;;;;;;;;37.25;33.25;;;;;-143.90;100.00;75478.22;4947258;28;102740;-75
2024/02/29 09:51:44;;;;;;;;;34.75;29.00;;;;;-143.90;100.00;75445.13;4968154;28;101860;-74
2024/02/29 09:54:18;;;;;;;;;40.25;35.25;;;;;-143.90;100.00;75387.22;4964701;28;102053;-75
2024/02/29 09:56:45;;;;;;;;;46.50;36.75;;;;;-143.90;100.00;75387.22;4957634;28;103439;-75
2024/02/29 09:59:16;;;;;;;;;51.75;40.75;;;;;-143.90;100.00;75391.38;4950311;28;101499;-75
2024/02/29 10:01:54;;;;;;;;;54.75;37.75;;;;;-143.90;100.00;75395.50;4951710;28;102649;-76
2024/02/29 10:04:21;;;;;;;;;49.50;37.00;;;;;-143.90;100.00;75374.84;4966346;28;101671;-76
2024/02/29 10:06:48;;;;;;;;;46.00;36.50;;;;;-143.90;100.00;75366.56;4958898;28;105600;-75
2024/02/29 10:09:15;;;;;;;;;48.00;39.25;;;;;-143.90;100.00;75385.16;4966906;28;102191;-75
2024/02/29 10:11:43;;;;;;;;;54.50;40.00;;;;;-143.90;100.00;75395.50;4958918;28;102066;-75
2024/02/29 10:14:26;;;;;;;;;53.25;39.75;;;;;-143.90;100.00;75403.78;4940877;28;102158;-74
2024/02/29 10:16:54;;;;;;;;;48.50;38.75;;;;;-143.90;100.00;75399.63;4935003;28;103409;-75
2024/02/29 10:19:22;;;;;;;;;39.25;31.75;;;;;-143.90;100.00;75397.56;4944381;28;101971;-75
2024/02/29 10:21:51;;;;;;;;;40.00;33.00;;;;;-143.90;100.00;75364.50;4955718;28;101846;-77
2024/02/29 10:24:24;;;;;;;;;47.75;36.00;;;;;-143.90;100.00;75310.75;4948815;28;102089;-74
2024/02/29 10:26:50;;;;;;;;;38.25;32.00;;;;;-143.90;100.00;75283.84;4939897;28;103484;-74
2024/02/29 10:29:18;;;;;;;;;50.25;36.00;;;;;-143.90;100.00;75290.06;4953001;28;101723;-75
2024/02/29 10:31:45;;;;;;;;;37.25;32.25;;;;;-143.90;100.00;75277.66;4961800;28;101982;-75
2024/02/29 10:34:12;;;;;;;;;36.50;31.50;;;;;-143.90;100.00;75283.84;4967875;28;102051;-75
2024/02/29 10:36:42;;;;;;;;;34.50;33.00;;;;;-143.90;100.00;75294.19;4960812;28;103244;-75
2024/02/29 10:39:10;;;;;;;;;35.00;26.50;;;;;-143.90;100.00;75275.59;4953651;28;101969;-76
2024/02/29 10:41:40;;;;;;;;;49.75;36.25;;;;;-143.90;100.00;75259.06;4941061;28;102062;-75
2024/02/29 10:44:11;;;;;;;;;37.50;34.00;;;;;-143.90;100.00;75244.59;4957583;28;102273;-75
2024/02/29 10:46:41;;;;;;;;;53.25;41.00;;;;;-143.90;100.00;75236.31;4962023;28;103643;-75
2024/02/29 10:49:35;;;;;;;;;34.75;30.50;;;;;-143.90;100.00;75248.72;4964036;28;102232;-75